البصرة, العراق

04:22 PM AST on êèنêè 22, 2014 (GMT +0300)
Basrah International (ORMM) Elev 7 ft | 30.52 °N, 47.78 °E | Change Station

Current weather conditions updated 22 minutes ago

Clear
صافية
111 °F
Feels Like 111 °F
N
21
ريح متغير ريح from غرب

Tomorrow is forecast to be nearly the same temperature as today.

هذا اليوم
High -- | Low -- °F
--% Chance of Precip.
Yesterday
High -- | Low -- °F
Precip. -- في
5:00 AM 6:49 PM
الهلال الأخير, 17% visible
الضغط 29.50 في
وضوح الرؤية -9999.0 أميال
سحابات
نقطة الندى 41 °F
الرطوبة 9%
Rainfall 0.00 في
عمق الثلج Not available.
الأشعة فوق البنفسجية Not available.
Pollen Not available.
جودة الهواء Not available.
Flu Activity Not available.
METAR ORMM 221300Z 28018KT CAVOK 44/05 Q0999 NOSIG

More Conditions Fewer Conditions

الضغط 29.50 في
وضوح الرؤية -9999.0 أميال
سحابات
نقطة الندى 41 °F
الرطوبة 9%
Rainfall 0.00 في
عمق الثلج Not available.
الأشعة فوق البنفسجية Not available.
Pollen Not available.
جودة الهواء Not available.
Flu Activity Not available.
METAR ORMM 221300Z 28018KT CAVOK 44/05 Q0999 NOSIG

More Conditions Fewer Conditions

10-Day Weather Forecast

LIGHTNING

Thunderstorms are forecast for your area. Cloud conditions might be right for producing strikes in the next few days, though lightning itself cannot be forecasted.

Lightning is a visible electrical discharge produced by a thunderstorm, based on the build up of oppositely charged particles within a cloud and from cloud to ground.

Know how to stay safe in a lightning storm.

Check out these Lightning WunderPhotos!

Almanac

علم الفلك

Jul. 22, 2014 Rise Set
Actual Time 5:00 AM AST 6:49 PM AST
Civil Twilight 4:33 AM AST 7:16 PM AST
Nautical Twilight 4:01 AM AST 7:48 PM AST
Astronomical Twilight 3:27 AM AST 8:22 PM AST
قمر 1:13 AM AST 3:09 PM AST
Length Of Visible Light 14h 42m
طول الیوم
13h 49m
Tomorrow will be 1m 8s shorter.
الهلال الأخير, 17% of the Moon is Illuminated
هذا اليوم
الهلال الأخير
Jul 26
New
Aug 3
الربع الاول
Aug 10
بدر
Aug 17
الربع الآخر

Yesterday's Extremes

Country Highs Country Lows

Community

WunderPhotos

Upload Photos

1,736,226 photos uploaded!

Nearby

جودة الهواء

Not available.

عمق الثلج

Not available.

Earthquake Activity

City Distance Mag. Time & Date
No recent earthquake activity has been reported nearby.
Minimum magnitude displayed is 2.5.

Coastal Water Temperatures

مكان درجات الحرارة
No Stations Reporting

Nearby Weather Stations

There are no personal weather stations in this area.